ITY620 VIDP-LIRF
Flight info
| Callsign | ITY620 |
|---|---|
| Flight time | N/A |
| Altitude | 34000 |
| Route | OROTI7C OROTI A589 ASARI A466 SULOM L509 NONIB/N0494F360 T400 PS/N0496F350 P500 ATROL/N0492F360 P500 GERRY/N0495F350 P500 MOTMO/N0492F360 P500 FIRUZ/K0911F360 Z407 VAJEN Z767 DAROW L181 BUTRA Z407 USETU Z514 OGNOB Y92 BUPOR T388 POGON/N0491F360 A477 BABUM A909 TUGTA B701 LARGI N701 BAKUV L850 BEKIR/N0488F380 L850 ADEKI N644 LAGAS DCT TETRO DCT SARPI UM10 TIVUG UL852 NEGEM Q8 DOLAP DCT VELUG/N0487F390 DCT ARSOB DCT ETRIN DCT ESODU/N0499F330 DCT ASPIR DCT MOPUV |
| Aircraft | A359/H-SDE1E2E3FGHIJ2J3J4J5M1RWXY/LB1D1 |
Departure
| Time | 2026-04-27 07:11 |
|---|---|
| Airport | Indira Gandhi International Airport (VIDP) |
Arrival
| Time | N/A |
|---|---|
| Airport | Rome–Fiumicino Leonardo da Vinci International Airport (LIRF) |
| Time | Latitude | Longitude | Altitude | Speed | Heading |
|---|---|---|---|---|---|
| 2026-04-27 06:52 | 28.55824 | 77.08181 | 790 ft | 0 kts | 329° |
| 2026-04-27 06:57 | 28.55831 | 77.08176 | 790 ft | 3 kts | 330° |
| 2026-04-27 06:57 | 28.55858 | 77.08159 | 790 ft | 6 kts | 330° |
| 2026-04-27 06:57 | 28.55904 | 77.08129 | 790 ft | 9 kts | 330° |
| 2026-04-27 06:57 | 28.55961 | 77.08092 | 790 ft | 10 kts | 330° |
| 2026-04-27 06:58 | 28.56010 | 77.08046 | 790 ft | 9 kts | 293° |
| 2026-04-27 06:58 | 28.55916 | 77.07958 | 790 ft | 14 kts | 195° |
| 2026-04-27 06:58 | 28.55812 | 77.07927 | 790 ft | 17 kts | 195° |
| 2026-04-27 06:59 | 28.55700 | 77.07893 | 790 ft | 16 kts | 195° |
| 2026-04-27 06:59 | 28.55594 | 77.07863 | 790 ft | 15 kts | 196° |
| 2026-04-27 06:59 | 28.55495 | 77.07832 | 790 ft | 14 kts | 193° |
| 2026-04-27 06:59 | 28.55403 | 77.07805 | 790 ft | 13 kts | 195° |
| 2026-04-27 07:00 | 28.55316 | 77.07779 | 790 ft | 13 kts | 194° |
| 2026-04-27 07:00 | 28.55232 | 77.07755 | 790 ft | 12 kts | 193° |
| 2026-04-27 07:00 | 28.55161 | 77.07741 | 790 ft | 9 kts | 168° |
| 2026-04-27 07:00 | 28.55123 | 77.07792 | 790 ft | 9 kts | 104° |
| 2026-04-27 07:01 | 28.55101 | 77.07889 | 790 ft | 15 kts | 104° |
| 2026-04-27 07:01 | 28.55071 | 77.08017 | 790 ft | 17 kts | 104° |
| 2026-04-27 07:01 | 28.55042 | 77.08142 | 790 ft | 16 kts | 105° |
| 2026-04-27 07:01 | 28.55015 | 77.08260 | 790 ft | 15 kts | 104° |
| 2026-04-27 07:02 | 28.54984 | 77.08391 | 790 ft | 20 kts | 104° |
| 2026-04-27 07:02 | 28.54949 | 77.08541 | 790 ft | 19 kts | 104° |
| 2026-04-27 07:02 | 28.54917 | 77.08684 | 790 ft | 18 kts | 104° |
| 2026-04-27 07:02 | 28.54885 | 77.08819 | 790 ft | 17 kts | 105° |
| 2026-04-27 07:03 | 28.54855 | 77.08946 | 790 ft | 16 kts | 103° |
| 2026-04-27 07:03 | 28.54827 | 77.09067 | 790 ft | 15 kts | 104° |
| 2026-04-27 07:03 | 28.54802 | 77.09181 | 790 ft | 14 kts | 105° |
| 2026-04-27 07:03 | 28.54776 | 77.09287 | 790 ft | 13 kts | 105° |
| 2026-04-27 07:04 | 28.54753 | 77.09387 | 790 ft | 13 kts | 104° |
| 2026-04-27 07:04 | 28.54723 | 77.09515 | 790 ft | 20 kts | 105° |
| 2026-04-27 07:04 | 28.54689 | 77.09663 | 790 ft | 19 kts | 104° |
| 2026-04-27 07:04 | 28.54656 | 77.09806 | 790 ft | 18 kts | 104° |
| 2026-04-27 07:05 | 28.54624 | 77.09941 | 790 ft | 17 kts | 104° |
| 2026-04-27 07:05 | 28.54595 | 77.10069 | 790 ft | 16 kts | 105° |
| 2026-04-27 07:05 | 28.54567 | 77.10189 | 790 ft | 15 kts | 105° |
| 2026-04-27 07:05 | 28.54540 | 77.10303 | 790 ft | 14 kts | 104° |
| 2026-04-27 07:06 | 28.54516 | 77.10410 | 790 ft | 13 kts | 104° |
| 2026-04-27 07:06 | 28.54493 | 77.10507 | 790 ft | 10 kts | 104° |
| 2026-04-27 07:06 | 28.54469 | 77.10572 | 790 ft | 9 kts | 135° |
| 2026-04-27 07:06 | 28.54412 | 77.10584 | 790 ft | 9 kts | 192° |
| 2026-04-27 07:07 | 28.54355 | 77.10569 | 790 ft | 8 kts | 193° |
| 2026-04-27 07:07 | 28.54301 | 77.10554 | 790 ft | 8 kts | 193° |
| 2026-04-27 07:07 | 28.54271 | 77.10546 | 790 ft | 7 kts | 194° |
| 2026-04-27 07:07 | 28.54222 | 77.10532 | 790 ft | 7 kts | 193° |
| 2026-04-27 07:08 | 28.54162 | 77.10516 | 790 ft | 10 kts | 193° |
| 2026-04-27 07:08 | 28.54098 | 77.10498 | 790 ft | 9 kts | 195° |
| 2026-04-27 07:08 | 28.54037 | 77.10481 | 790 ft | 9 kts | 194° |
| 2026-04-27 07:08 | 28.53977 | 77.10464 | 790 ft | 9 kts | 193° |
| 2026-04-27 07:09 | 28.53921 | 77.10449 | 790 ft | 8 kts | 193° |
| 2026-04-27 07:09 | 28.53887 | 77.10421 | 790 ft | 5 kts | 260° |
| 2026-04-27 07:09 | 28.53891 | 77.10384 | 790 ft | 5 kts | 284° |
| 2026-04-27 07:09 | 28.53895 | 77.10369 | 790 ft | 5 kts | 284° |
| 2026-04-27 07:10 | 28.53936 | 77.10176 | 790 ft | 52 kts | 284° |
| 2026-04-27 07:10 | 28.54070 | 77.09562 | 791 ft | 107 kts | 283° |
| 2026-04-27 07:10 | 28.54288 | 77.08553 | 791 ft | 155 kts | 284° |
| 2026-04-27 07:10 | 28.54569 | 77.07231 | 946 ft | 180 kts | 283° |
| 2026-04-27 07:11 | 28.54862 | 77.05871 | 1616 ft | 179 kts | 283° |
| 2026-04-27 07:11 | 28.55053 | 77.04479 | 2223 ft | 183 kts | 271° |
| 2026-04-27 07:11 | 28.54867 | 77.03019 | 2733 ft | 190 kts | 257° |
| 2026-04-27 07:11 | 28.54523 | 77.01564 | 3154 ft | 192 kts | 258° |
| 2026-04-27 07:12 | 28.54184 | 77.00077 | 3587 ft | 194 kts | 257° |
| 2026-04-27 07:12 | 28.53841 | 76.98585 | 3944 ft | 200 kts | 257° |
| 2026-04-27 07:12 | 28.53467 | 76.96967 | 4008 ft | 222 kts | 257° |
| 2026-04-27 07:12 | 28.53051 | 76.95177 | 3976 ft | 245 kts | 256° |
| 2026-04-27 07:13 | 28.52597 | 76.93229 | 3884 ft | 266 kts | 256° |
| 2026-04-27 07:13 | 28.52115 | 76.91166 | 3933 ft | 272 kts | 256° |
| 2026-04-27 07:13 | 28.51667 | 76.89050 | 3962 ft | 276 kts | 262° |
| 2026-04-27 07:13 | 28.51600 | 76.86902 | 3977 ft | 275 kts | 274° |
| 2026-04-27 07:14 | 28.51795 | 76.84740 | 3971 ft | 273 kts | 278° |
| 2026-04-27 07:14 | 28.52126 | 76.82615 | 3970 ft | 273 kts | 282° |
| 2026-04-27 07:14 | 28.52564 | 76.80514 | 3970 ft | 273 kts | 285° |
| 2026-04-27 07:14 | 28.53044 | 76.78426 | 3970 ft | 273 kts | 285° |
| 2026-04-27 07:15 | 28.53513 | 76.76327 | 3970 ft | 273 kts | 285° |
| 2026-04-27 07:15 | 28.53973 | 76.74228 | 3970 ft | 273 kts | 285° |
| 2026-04-27 07:15 | 28.54566 | 76.72181 | 3969 ft | 273 kts | 294° |
| 2026-04-27 07:15 | 28.55445 | 76.70264 | 4037 ft | 275 kts | 300° |
| 2026-04-27 07:16 | 28.56100 | 76.69035 | 4364 ft | 275 kts | 302° |
| 2026-04-27 07:16 | 28.57490 | 76.66625 | 5135 ft | 273 kts | 304° |
| 2026-04-27 07:16 | 28.58574 | 76.64836 | 5723 ft | 274 kts | 305° |
| 2026-04-27 07:16 | 28.59297 | 76.63654 | 6097 ft | 274 kts | 305° |
| 2026-04-27 07:17 | 28.60394 | 76.61863 | 6603 ft | 276 kts | 305° |
| 2026-04-27 07:17 | 28.61494 | 76.60066 | 7131 ft | 277 kts | 305° |
| 2026-04-27 07:17 | 28.62961 | 76.57670 | 7812 ft | 278 kts | 304° |
| 2026-04-27 07:17 | 28.64070 | 76.55857 | 8294 ft | 279 kts | 304° |
| 2026-04-27 07:18 | 28.64822 | 76.54628 | 8613 ft | 280 kts | 304° |
| 2026-04-27 07:18 | 28.65937 | 76.52804 | 9088 ft | 281 kts | 304° |
| 2026-04-27 07:18 | 28.67055 | 76.50973 | 9570 ft | 281 kts | 304° |
| 2026-04-27 07:18 | 28.68173 | 76.49142 | 10005 ft | 284 kts | 304° |
| 2026-04-27 07:19 | 28.69330 | 76.47249 | 10123 ft | 298 kts | 304° |
| 2026-04-27 07:19 | 28.70535 | 76.45275 | 10260 ft | 310 kts | 304° |
| 2026-04-27 07:19 | 28.71794 | 76.43213 | 10363 ft | 324 kts | 304° |
| 2026-04-27 07:19 | 28.73111 | 76.41052 | 10481 ft | 339 kts | 304° |
| 2026-04-27 07:20 | 28.74473 | 76.38821 | 10666 ft | 352 kts | 304° |
| 2026-04-27 07:20 | 28.75902 | 76.36506 | 11029 ft | 362 kts | 304° |
| 2026-04-27 07:20 | 28.77352 | 76.34151 | 11678 ft | 363 kts | 304° |
| 2026-04-27 07:20 | 28.78802 | 76.31788 | 12429 ft | 364 kts | 304° |
| 2026-04-27 07:21 | 28.80264 | 76.29402 | 12990 ft | 369 kts | 304° |
| 2026-04-27 07:21 | 28.81745 | 76.26978 | 13551 ft | 373 kts | 304° |
| 2026-04-27 07:21 | 28.83235 | 76.24536 | 14145 ft | 377 kts | 304° |
| 2026-04-27 07:21 | 28.84742 | 76.22066 | 14661 ft | 382 kts | 304° |
| 2026-04-27 07:22 | 28.86262 | 76.19568 | 15209 ft | 386 kts | 304° |
| 2026-04-27 07:22 | 28.87781 | 76.17072 | 15750 ft | 389 kts | 304° |
| 2026-04-27 07:22 | 28.89331 | 76.14524 | 16272 ft | 393 kts | 304° |
| 2026-04-27 07:22 | 28.90899 | 76.11942 | 16823 ft | 396 kts | 304° |
| 2026-04-27 07:23 | 28.92481 | 76.09336 | 17320 ft | 400 kts | 304° |
| 2026-04-27 07:23 | 28.94074 | 76.06712 | 17818 ft | 404 kts | 304° |
| 2026-04-27 07:23 | 28.95683 | 76.04059 | 18329 ft | 407 kts | 304° |
| 2026-04-27 07:23 | 28.97302 | 76.01387 | 18820 ft | 410 kts | 304° |
| 2026-04-27 07:24 | 28.98932 | 75.98696 | 19283 ft | 414 kts | 304° |
| 2026-04-27 07:24 | 29.00559 | 75.96008 | 19736 ft | 417 kts | 303° |
| 2026-04-27 07:24 | 29.02212 | 75.93274 | 20185 ft | 420 kts | 303° |
| 2026-04-27 07:24 | 29.03881 | 75.90513 | 20579 ft | 423 kts | 303° |
| 2026-04-27 07:25 | 29.05560 | 75.87734 | 20999 ft | 426 kts | 303° |
| 2026-04-27 07:25 | 29.07251 | 75.84932 | 21399 ft | 429 kts | 303° |
| 2026-04-27 07:25 | 29.08951 | 75.82113 | 21744 ft | 433 kts | 303° |
| 2026-04-27 07:25 | 29.10670 | 75.79273 | 22132 ft | 435 kts | 304° |
| 2026-04-27 07:26 | 29.12409 | 75.76413 | 22501 ft | 438 kts | 303° |
| 2026-04-27 07:26 | 29.14148 | 75.73532 | 22810 ft | 441 kts | 303° |
| 2026-04-27 07:26 | 29.15891 | 75.70633 | 23159 ft | 444 kts | 303° |
| 2026-04-27 07:26 | 29.17644 | 75.67709 | 23464 ft | 447 kts | 303° |
| 2026-04-27 07:27 | 29.19406 | 75.64768 | 23783 ft | 449 kts | 303° |
| 2026-04-27 07:27 | 29.21178 | 75.61808 | 24103 ft | 451 kts | 303° |
| 2026-04-27 07:27 | 29.22956 | 75.58836 | 24446 ft | 452 kts | 303° |
| 2026-04-27 07:27 | 29.24714 | 75.55896 | 24785 ft | 453 kts | 303° |
| 2026-04-27 07:28 | 29.26506 | 75.52904 | 25116 ft | 455 kts | 303° |
| 2026-04-27 07:28 | 29.28265 | 75.49891 | 25427 ft | 456 kts | 301° |
| 2026-04-27 07:28 | 29.29848 | 75.46733 | 25741 ft | 456 kts | 297° |
| 2026-04-27 07:28 | 29.31553 | 75.43670 | 25946 ft | 459 kts | 308° |
| 2026-04-27 07:29 | 29.33931 | 75.41211 | 26173 ft | 466 kts | 324° |
| 2026-04-27 07:29 | 29.36868 | 75.39591 | 26494 ft | 471 kts | 339° |
| 2026-04-27 07:29 | 29.40060 | 75.38656 | 26823 ft | 475 kts | 346° |
| 2026-04-27 07:29 | 29.43323 | 75.37998 | 27103 ft | 477 kts | 348° |
| 2026-04-27 07:30 | 29.46624 | 75.37482 | 27366 ft | 480 kts | 350° |
| 2026-04-27 07:30 | 29.49912 | 75.37030 | 27627 ft | 482 kts | 350° |
| 2026-04-27 07:30 | 29.53252 | 75.36553 | 27893 ft | 483 kts | 349° |
| 2026-04-27 07:30 | 29.56597 | 75.36050 | 28143 ft | 485 kts | 349° |
| 2026-04-27 07:31 | 29.59941 | 75.35529 | 28389 ft | 486 kts | 349° |
| 2026-04-27 07:31 | 29.63295 | 75.34996 | 28624 ft | 487 kts | 348° |
| 2026-04-27 07:31 | 29.66663 | 75.34457 | 28861 ft | 489 kts | 348° |
| 2026-04-27 07:31 | 29.70037 | 75.33918 | 29114 ft | 490 kts | 348° |
| 2026-04-27 07:32 | 29.73412 | 75.33377 | 29341 ft | 491 kts | 348° |
| 2026-04-27 07:32 | 29.76801 | 75.32831 | 29547 ft | 492 kts | 348° |
| 2026-04-27 07:32 | 29.80192 | 75.32283 | 29757 ft | 493 kts | 348° |
| 2026-04-27 07:32 | 29.83598 | 75.31733 | 29965 ft | 494 kts | 348° |
| 2026-04-27 07:33 | 29.87008 | 75.31181 | 30164 ft | 495 kts | 348° |
| 2026-04-27 07:33 | 29.90419 | 75.30628 | 30439 ft | 494 kts | 348° |
| 2026-04-27 07:33 | 29.93818 | 75.30077 | 30773 ft | 492 kts | 348° |
| 2026-04-27 07:33 | 29.97213 | 75.29525 | 31097 ft | 491 kts | 348° |
| 2026-04-27 07:34 | 30.00589 | 75.28977 | 31393 ft | 490 kts | 348° |
| 2026-04-27 07:34 | 30.03955 | 75.28430 | 31737 ft | 487 kts | 348° |
| 2026-04-27 07:34 | 30.07311 | 75.27884 | 32041 ft | 486 kts | 348° |
| 2026-04-27 07:34 | 30.10653 | 75.27340 | 32336 ft | 484 kts | 348° |
| 2026-04-27 07:35 | 30.13984 | 75.26798 | 32653 ft | 482 kts | 348° |
| 2026-04-27 07:35 | 30.17308 | 75.26256 | 32942 ft | 481 kts | 348° |
| 2026-04-27 07:35 | 30.20582 | 75.25722 | 33215 ft | 480 kts | 348° |
| 2026-04-27 07:35 | 30.23889 | 75.25182 | 33474 ft | 479 kts | 348° |
| 2026-04-27 07:36 | 30.27186 | 75.24643 | 33692 ft | 478 kts | 348° |
| 2026-04-27 07:36 | 30.33777 | 75.23566 | 33701 ft | 478 kts | 348° |
| 2026-04-27 07:37 | 30.40358 | 75.22488 | 33698 ft | 477 kts | 348° |
| 2026-04-27 07:37 | 30.46941 | 75.21409 | 33696 ft | 477 kts | 348° |
| 2026-04-27 07:38 | 30.53511 | 75.20335 | 33696 ft | 477 kts | 348° |
| 2026-04-27 07:38 | 30.60091 | 75.19253 | 33697 ft | 478 kts | 348° |
| 2026-04-27 07:39 | 30.66675 | 75.18167 | 33695 ft | 478 kts | 348° |
| 2026-04-27 07:39 | 30.73253 | 75.17081 | 33697 ft | 477 kts | 348° |
| 2026-04-27 07:40 | 30.79647 | 75.15380 | 33696 ft | 471 kts | 333° |
| 2026-04-27 07:40 | 30.85112 | 75.11307 | 33697 ft | 466 kts | 316° |
| 2026-04-27 07:41 | 30.89749 | 75.06078 | 33706 ft | 462 kts | 312° |
| 2026-04-27 07:41 | 30.94319 | 75.00807 | 33707 ft | 461 kts | 314° |
| 2026-04-27 07:42 | 30.98983 | 74.95651 | 33707 ft | 462 kts | 314° |
| 2026-04-27 07:42 | 31.03674 | 74.90516 | 33706 ft | 462 kts | 314° |
| 2026-04-27 07:43 | 31.08353 | 74.85419 | 33704 ft | 462 kts | 315° |
| 2026-04-27 07:43 | 31.13062 | 74.80302 | 33698 ft | 462 kts | 315° |
| 2026-04-27 07:44 | 31.17755 | 74.75170 | 33698 ft | 462 kts | 314° |
| 2026-04-27 07:44 | 31.22441 | 74.70014 | 33698 ft | 462 kts | 314° |
| 2026-04-27 07:45 | 31.27115 | 74.64861 | 33698 ft | 462 kts | 314° |
| 2026-04-27 07:45 | 31.31797 | 74.59696 | 33698 ft | 462 kts | 314° |
| 2026-04-27 07:46 | 31.36574 | 74.54633 | 33699 ft | 463 kts | 318° |
| 2026-04-27 07:46 | 31.41674 | 74.49995 | 33698 ft | 464 kts | 321° |
| 2026-04-27 07:47 | 31.46832 | 74.45504 | 33698 ft | 465 kts | 320° |
| 2026-04-27 07:47 | 31.51982 | 74.40921 | 33699 ft | 465 kts | 320° |
| 2026-04-27 07:48 | 31.57108 | 74.36307 | 33698 ft | 464 kts | 320° |
| 2026-04-27 07:48 | 31.62239 | 74.31669 | 33699 ft | 465 kts | 320° |
| 2026-04-27 07:49 | 31.67375 | 74.27060 | 33699 ft | 465 kts | 320° |
| 2026-04-27 07:49 | 31.72500 | 74.22434 | 33699 ft | 465 kts | 320° |
| 2026-04-27 07:50 | 31.77625 | 74.17792 | 33699 ft | 465 kts | 320° |
| 2026-04-27 07:50 | 31.82744 | 74.13145 | 33700 ft | 465 kts | 320° |
| 2026-04-27 07:51 | 31.87859 | 74.08494 | 33700 ft | 465 kts | 320° |
| 2026-04-27 07:51 | 31.92969 | 74.03840 | 33700 ft | 465 kts | 320° |
| 2026-04-27 07:52 | 31.98049 | 73.99207 | 33701 ft | 465 kts | 320° |
| 2026-04-27 07:52 | 32.03170 | 73.94530 | 33701 ft | 465 kts | 320° |
| 2026-04-27 07:53 | 32.08279 | 73.89856 | 33701 ft | 465 kts | 320° |
| 2026-04-27 07:53 | 32.13380 | 73.85183 | 33702 ft | 465 kts | 320° |
| 2026-04-27 07:54 | 32.18463 | 73.80520 | 33702 ft | 465 kts | 320° |
| 2026-04-27 07:54 | 32.23569 | 73.75830 | 33703 ft | 465 kts | 319° |
| 2026-04-27 07:55 | 32.28677 | 73.71130 | 33703 ft | 465 kts | 319° |
| 2026-04-27 07:55 | 32.33784 | 73.66424 | 33704 ft | 465 kts | 319° |
| 2026-04-27 07:56 | 32.38885 | 73.61717 | 33705 ft | 464 kts | 319° |
| 2026-04-27 07:56 | 32.43949 | 73.57037 | 33706 ft | 464 kts | 319° |
| 2026-04-27 07:57 | 32.49045 | 73.52320 | 33708 ft | 465 kts | 319° |
| 2026-04-27 07:57 | 32.54147 | 73.47613 | 33710 ft | 465 kts | 319° |
| 2026-04-27 07:58 | 32.59244 | 73.42887 | 33717 ft | 465 kts | 319° |
| 2026-04-27 07:58 | 32.63477 | 73.38945 | 33719 ft | 465 kts | 319° |
| 2026-04-27 07:59 | 32.68566 | 73.34197 | 33721 ft | 465 kts | 319° |
| 2026-04-27 07:59 | 32.76686 | 73.25903 | 33765 ft | 462 kts | 308° |
| 2026-04-27 08:00 | 32.79937 | 73.20865 | 33766 ft | 461 kts | 303° |
| 2026-04-27 08:00 | 32.83485 | 73.14530 | 33767 ft | 460 kts | 301° |
| 2026-04-27 08:01 | 32.86965 | 73.08143 | 33768 ft | 459 kts | 301° |
| 2026-04-27 08:01 | 32.90460 | 73.01776 | 33769 ft | 459 kts | 301° |
| 2026-04-27 08:02 | 32.93964 | 72.95402 | 33773 ft | 460 kts | 301° |
| 2026-04-27 08:02 | 32.97483 | 72.89048 | 33772 ft | 459 kts | 301° |
| 2026-04-27 08:03 | 33.01009 | 72.82703 | 33771 ft | 459 kts | 301° |
| 2026-04-27 08:03 | 33.04502 | 72.76371 | 33747 ft | 460 kts | 301° |
| 2026-04-27 08:04 | 33.08009 | 72.69993 | 33747 ft | 459 kts | 301° |
| 2026-04-27 08:04 | 33.11503 | 72.63623 | 33748 ft | 459 kts | 301° |
| 2026-04-27 08:05 | 33.14999 | 72.57238 | 33749 ft | 459 kts | 300° |
| 2026-04-27 08:05 | 33.18490 | 72.50848 | 33749 ft | 459 kts | 300° |
| 2026-04-27 08:06 | 33.21975 | 72.44460 | 33748 ft | 459 kts | 300° |
| 2026-04-27 08:06 | 33.25457 | 72.38066 | 33748 ft | 459 kts | 300° |
| 2026-04-27 08:07 | 33.28915 | 72.31706 | 33747 ft | 459 kts | 300° |
| 2026-04-27 08:07 | 33.32393 | 72.25297 | 33746 ft | 459 kts | 300° |
| 2026-04-27 08:08 | 33.35868 | 72.18883 | 33744 ft | 459 kts | 300° |
| 2026-04-27 08:08 | 33.39343 | 72.12513 | 33739 ft | 459 kts | 300° |
| 2026-04-27 08:09 | 33.42809 | 72.06089 | 33723 ft | 459 kts | 299° |
| 2026-04-27 08:09 | 33.46263 | 71.99658 | 33723 ft | 459 kts | 299° |
| 2026-04-27 08:10 | 33.49721 | 71.93210 | 33723 ft | 459 kts | 299° |
| 2026-04-27 08:10 | 33.53416 | 71.86951 | 33724 ft | 463 kts | 308° |
| 2026-04-27 08:11 | 33.58291 | 71.81912 | 33734 ft | 470 kts | 321° |
| 2026-04-27 08:11 | 33.63857 | 71.77712 | 33735 ft | 474 kts | 324° |
| 2026-04-27 08:12 | 33.69473 | 71.73543 | 33734 ft | 475 kts | 322° |
| 2026-04-27 08:12 | 33.75065 | 71.69291 | 33732 ft | 474 kts | 322° |
| 2026-04-27 08:13 | 33.80620 | 71.65011 | 33731 ft | 474 kts | 322° |
| 2026-04-27 08:13 | 33.86171 | 71.60716 | 33729 ft | 474 kts | 322° |
| 2026-04-27 08:14 | 33.91723 | 71.56413 | 33729 ft | 475 kts | 322° |
| 2026-04-27 08:14 | 33.97583 | 71.52733 | 33728 ft | 482 kts | 338° |
| 2026-04-27 08:15 | 34.00900 | 71.51961 | 33745 ft | 491 kts | 349° |
| 2026-04-27 08:15 | 34.04360 | 71.51973 | 33855 ft | 502 kts | 359° |
| 2026-04-27 08:15 | 34.07840 | 71.52501 | 34065 ft | 506 kts | 4° |
| 2026-04-27 08:15 | 34.11311 | 71.53211 | 34337 ft | 505 kts | 5° |
| 2026-04-27 08:16 | 34.14728 | 71.53909 | 34672 ft | 502 kts | 4° |
| 2026-04-27 08:16 | 34.18198 | 71.54553 | 34748 ft | 503 kts | 3° |
| 2026-04-27 08:16 | 34.25135 | 71.55670 | 34730 ft | 502 kts | 1° |
| 2026-04-27 08:17 | 34.32075 | 71.56694 | 34729 ft | 501 kts | 1° |
| 2026-04-27 08:17 | 34.38970 | 71.57697 | 34730 ft | 501 kts | 1° |
| 2026-04-27 08:18 | 34.45901 | 71.58711 | 34731 ft | 501 kts | 1° |
| 2026-04-27 08:18 | 34.52835 | 71.59727 | 34733 ft | 501 kts | 1° |
| 2026-04-27 08:19 | 34.59721 | 71.60739 | 34734 ft | 501 kts | 1° |
| 2026-04-27 08:19 | 34.66648 | 71.61759 | 34736 ft | 501 kts | 1° |
| 2026-04-27 08:20 | 34.73582 | 71.62781 | 34737 ft | 500 kts | 1° |
| 2026-04-27 08:20 | 34.80504 | 71.63803 | 34739 ft | 500 kts | 1° |
| 2026-04-27 08:21 | 34.87369 | 71.64819 | 34741 ft | 500 kts | 1° |
| 2026-04-27 08:21 | 34.94293 | 71.65845 | 34743 ft | 499 kts | 1° |
| 2026-04-27 08:22 | 35.01207 | 71.66872 | 34745 ft | 499 kts | 1° |
| 2026-04-27 08:22 | 35.08066 | 71.67892 | 34747 ft | 498 kts | 1° |
| 2026-04-27 08:23 | 35.14968 | 71.68920 | 34750 ft | 498 kts | 1° |
| 2026-04-27 08:23 | 35.21854 | 71.69947 | 34748 ft | 498 kts | 1° |
| 2026-04-27 08:24 | 35.28696 | 71.70970 | 34738 ft | 498 kts | 1° |
| 2026-04-27 08:24 | 35.35567 | 71.71999 | 34742 ft | 497 kts | 1° |
| 2026-04-27 08:25 | 35.42428 | 71.73028 | 34746 ft | 496 kts | 1° |
| 2026-04-27 08:25 | 35.49279 | 71.74057 | 34750 ft | 495 kts | 1° |
| 2026-04-27 08:26 | 35.56124 | 71.75087 | 34754 ft | 495 kts | 1° |
| 2026-04-27 08:26 | 35.62959 | 71.76113 | 34758 ft | 494 kts | 1° |
| 2026-04-27 08:27 | 35.69791 | 71.77145 | 34763 ft | 494 kts | 1° |
| 2026-04-27 08:27 | 35.76573 | 71.78174 | 34769 ft | 494 kts | 1° |
| 2026-04-27 08:28 | 35.83402 | 71.79209 | 34800 ft | 494 kts | 1° |
| 2026-04-27 08:28 | 35.86807 | 71.79393 | 35011 ft | 484 kts | 351° |
| 2026-04-27 08:28 | 35.90099 | 71.78799 | 35295 ft | 474 kts | 340° |
| 2026-04-27 08:29 | 35.93163 | 71.77446 | 35505 ft | 464 kts | 329° |
| 2026-04-27 08:29 | 35.95958 | 71.75495 | 35722 ft | 459 kts | 322° |
| 2026-04-27 08:29 | 36.01357 | 71.71273 | 35788 ft | 459 kts | 324° |
| 2026-04-27 08:30 | 36.06905 | 71.67347 | 35792 ft | 460 kts | 326° |
| 2026-04-27 08:30 | 36.12500 | 71.63507 | 35797 ft | 460 kts | 325° |
| 2026-04-27 08:31 | 36.18132 | 71.59754 | 35418 ft | 464 kts | 332° |
| 2026-04-27 08:31 | 36.21255 | 71.58618 | 35131 ft | 472 kts | 344° |
| 2026-04-27 08:31 | 36.24543 | 71.58392 | 35021 ft | 479 kts | 358° |
| 2026-04-27 08:32 | 36.31121 | 71.60047 | 34858 ft | 491 kts | 7° |
| 2026-04-27 08:32 | 36.37870 | 71.61701 | 34818 ft | 495 kts | 3° |
| 2026-04-27 08:33 | 36.44699 | 71.62933 | 35026 ft | 495 kts | 2° |
| 2026-04-27 08:33 | 36.48105 | 71.63313 | 35399 ft | 487 kts | 357° |
| 2026-04-27 08:33 | 36.51470 | 71.63364 | 35673 ft | 483 kts | 353° |
| 2026-04-27 08:34 | 36.54829 | 71.63240 | 35832 ft | 483 kts | 352° |
| 2026-04-27 08:34 | 36.58190 | 71.63131 | 35835 ft | 483 kts | 353° |
| 2026-04-27 08:34 | 36.64911 | 71.63030 | 35838 ft | 482 kts | 353° |
| 2026-04-27 08:35 | 36.71625 | 71.62980 | 35844 ft | 482 kts | 354° |
| 2026-04-27 08:35 | 36.78337 | 71.63011 | 35849 ft | 482 kts | 354° |
| 2026-04-27 08:36 | 36.85025 | 71.63031 | 35853 ft | 483 kts | 354° |
| 2026-04-27 08:36 | 36.91745 | 71.63047 | 35857 ft | 482 kts | 354° |
| 2026-04-27 08:37 | 36.98447 | 71.63061 | 35862 ft | 482 kts | 354° |
| 2026-04-27 08:37 | 37.05150 | 71.63074 | 35866 ft | 481 kts | 354° |
| 2026-04-27 08:38 | 37.11854 | 71.63087 | 35870 ft | 481 kts | 354° |
| 2026-04-27 08:38 | 37.18536 | 71.63100 | 35874 ft | 480 kts | 354° |
| 2026-04-27 08:39 | 37.25172 | 71.63113 | 35877 ft | 480 kts | 354° |
| 2026-04-27 08:39 | 37.31849 | 71.63126 | 35880 ft | 479 kts | 354° |
| 2026-04-27 08:40 | 37.38516 | 71.63139 | 35883 ft | 478 kts | 354° |
| 2026-04-27 08:40 | 37.45177 | 71.63153 | 35886 ft | 478 kts | 354° |
| 2026-04-27 08:41 | 37.51827 | 71.63166 | 35888 ft | 477 kts | 354° |
| 2026-04-27 08:41 | 37.58468 | 71.63179 | 35891 ft | 477 kts | 354° |
| 2026-04-27 08:42 | 37.65067 | 71.63192 | 35893 ft | 476 kts | 354° |
| 2026-04-27 08:42 | 37.71702 | 71.63205 | 35896 ft | 476 kts | 354° |
| 2026-04-27 08:43 | 37.78322 | 71.63218 | 35897 ft | 475 kts | 354° |
| 2026-04-27 08:43 | 37.84940 | 71.63231 | 35899 ft | 475 kts | 354° |
| 2026-04-27 08:44 | 37.90430 | 71.63242 | 35901 ft | 474 kts | 354° |
| 2026-04-27 08:44 | 37.98106 | 71.63257 | 35910 ft | 474 kts | 354° |
| 2026-04-27 08:45 | 38.03634 | 71.63269 | 35921 ft | 474 kts | 354° |
| 2026-04-27 08:45 | 38.10206 | 71.63282 | 35928 ft | 474 kts | 354° |
| 2026-04-27 08:46 | 38.16782 | 71.63080 | 35928 ft | 466 kts | 344° |
| 2026-04-27 08:46 | 38.19830 | 71.61854 | 35930 ft | 456 kts | 328° |
| 2026-04-27 08:46 | 38.22418 | 71.59605 | 35932 ft | 449 kts | 312° |
| 2026-04-27 08:47 | 38.24417 | 71.56577 | 35931 ft | 447 kts | 301° |
| 2026-04-27 08:47 | 38.26073 | 71.53237 | 35928 ft | 446 kts | 299° |
| 2026-04-27 08:47 | 38.29370 | 71.46589 | 35927 ft | 441 kts | 301° |
| 2026-04-27 08:48 | 38.32872 | 71.40232 | 35928 ft | 442 kts | 303° |
| 2026-04-27 08:48 | 38.36564 | 71.33940 | 35929 ft | 444 kts | 304° |
| 2026-04-27 08:49 | 38.40272 | 71.27639 | 35930 ft | 444 kts | 304° |
| 2026-04-27 08:49 | 38.44011 | 71.21343 | 35930 ft | 445 kts | 304° |
| 2026-04-27 08:50 | 38.47731 | 71.15014 | 35931 ft | 445 kts | 304° |
| 2026-04-27 08:50 | 38.51440 | 71.08669 | 35931 ft | 446 kts | 303° |
| 2026-04-27 08:51 | 38.55115 | 71.02365 | 35932 ft | 446 kts | 303° |
| 2026-04-27 08:51 | 38.58817 | 70.96002 | 35933 ft | 446 kts | 303° |
| 2026-04-27 08:52 | 38.62540 | 70.89648 | 35933 ft | 446 kts | 303° |
| 2026-04-27 08:52 | 38.66240 | 70.83263 | 35933 ft | 446 kts | 303° |
| 2026-04-27 08:53 | 38.69926 | 70.76865 | 35934 ft | 446 kts | 303° |
| 2026-04-27 08:53 | 38.73588 | 70.70498 | 35935 ft | 446 kts | 303° |
| 2026-04-27 08:54 | 38.77231 | 70.64047 | 35937 ft | 445 kts | 299° |
| 2026-04-27 08:54 | 38.79798 | 70.56883 | 35937 ft | 442 kts | 285° |
| 2026-04-27 08:55 | 38.81323 | 70.49247 | 35936 ft | 441 kts | 281° |
| 2026-04-27 08:55 | 38.82658 | 70.41555 | 35937 ft | 440 kts | 282° |
| 2026-04-27 08:56 | 38.84052 | 70.33911 | 35937 ft | 440 kts | 282° |
| 2026-04-27 08:56 | 38.85469 | 70.26317 | 35937 ft | 441 kts | 282° |
| 2026-04-27 08:57 | 38.87653 | 70.14832 | 35938 ft | 441 kts | 283° |
| 2026-04-27 08:58 | 38.89142 | 70.07197 | 35938 ft | 441 kts | 282° |
| 2026-04-27 08:58 | 38.90597 | 69.99597 | 35939 ft | 441 kts | 282° |
| 2026-04-27 08:59 | 38.92048 | 69.91941 | 35939 ft | 441 kts | 282° |
| 2026-04-27 08:59 | 38.93490 | 69.84279 | 35939 ft | 441 kts | 282° |
| 2026-04-27 09:00 | 38.94927 | 69.76614 | 35940 ft | 441 kts | 282° |
| 2026-04-27 09:00 | 38.96357 | 69.68945 | 35940 ft | 441 kts | 282° |
| 2026-04-27 09:01 | 38.97783 | 69.61273 | 35944 ft | 442 kts | 281° |
| 2026-04-27 09:01 | 38.99204 | 69.53596 | 35944 ft | 442 kts | 281° |
| 2026-04-27 09:02 | 39.00621 | 69.45909 | 35944 ft | 442 kts | 281° |
| 2026-04-27 09:02 | 39.02032 | 69.38222 | 35943 ft | 441 kts | 281° |
| 2026-04-27 09:03 | 39.03430 | 69.30580 | 35943 ft | 442 kts | 281° |
| 2026-04-27 09:03 | 39.04832 | 69.22881 | 35942 ft | 442 kts | 281° |
| 2026-04-27 09:04 | 39.06233 | 69.15162 | 35942 ft | 443 kts | 281° |
| 2026-04-27 09:04 | 39.07628 | 69.07442 | 35942 ft | 443 kts | 281° |
| 2026-04-27 09:05 | 39.09018 | 68.99718 | 35942 ft | 443 kts | 281° |
| 2026-04-27 09:05 | 39.10404 | 68.91987 | 35942 ft | 443 kts | 281° |
| 2026-04-27 09:06 | 39.11777 | 68.84294 | 35938 ft | 443 kts | 281° |
| 2026-04-27 09:06 | 39.13154 | 68.76546 | 35934 ft | 443 kts | 281° |
| 2026-04-27 09:07 | 39.14526 | 68.68797 | 35939 ft | 443 kts | 281° |
| 2026-04-27 09:07 | 39.15892 | 68.61049 | 35940 ft | 443 kts | 281° |
| 2026-04-27 09:08 | 39.17254 | 68.53292 | 35940 ft | 443 kts | 280° |
| 2026-04-27 09:08 | 39.18613 | 68.45521 | 35941 ft | 443 kts | 280° |
| 2026-04-27 09:09 | 39.19970 | 68.37735 | 35938 ft | 452 kts | 279° |
| 2026-04-27 09:09 | 39.21354 | 68.29748 | 35939 ft | 460 kts | 279° |
| 2026-04-27 09:10 | 39.22749 | 68.21668 | 35941 ft | 462 kts | 279° |
| 2026-04-27 09:10 | 39.24136 | 68.13596 | 35942 ft | 461 kts | 279° |
| 2026-04-27 09:11 | 39.25518 | 68.05521 | 35943 ft | 460 kts | 279° |
| 2026-04-27 09:11 | 39.26892 | 67.97454 | 35944 ft | 461 kts | 279° |
| 2026-04-27 09:12 | 39.28264 | 67.89366 | 35945 ft | 461 kts | 279° |
| 2026-04-27 09:12 | 39.29655 | 67.81338 | 35947 ft | 461 kts | 279° |
| 2026-04-27 09:13 | 39.31015 | 67.73250 | 35948 ft | 461 kts | 279° |
| 2026-04-27 09:13 | 39.32355 | 67.65157 | 35949 ft | 461 kts | 279° |
| 2026-04-27 09:14 | 39.33691 | 67.57058 | 35950 ft | 461 kts | 279° |
| 2026-04-27 09:14 | 39.35050 | 67.48962 | 35950 ft | 461 kts | 281° |
| 2026-04-27 09:15 | 39.37213 | 67.41120 | 35953 ft | 465 kts | 290° |
| 2026-04-27 09:15 | 39.39834 | 67.33469 | 35956 ft | 465 kts | 289° |
| 2026-04-27 09:16 | 39.42320 | 67.25791 | 35957 ft | 466 kts | 289° |
| 2026-04-27 09:16 | 39.44986 | 67.18132 | 35959 ft | 467 kts | 292° |
| 2026-04-27 09:17 | 39.47925 | 67.10613 | 35960 ft | 468 kts | 293° |
| 2026-04-27 09:17 | 39.50824 | 67.03067 | 35962 ft | 468 kts | 292° |
| 2026-04-27 09:18 | 39.53683 | 66.95496 | 35962 ft | 468 kts | 292° |
| 2026-04-27 09:18 | 39.56532 | 66.87915 | 35962 ft | 468 kts | 292° |
| 2026-04-27 09:19 | 39.59382 | 66.80391 | 35962 ft | 468 kts | 292° |
| 2026-04-27 09:19 | 39.62289 | 66.72817 | 35961 ft | 468 kts | 292° |
| 2026-04-27 09:20 | 39.65142 | 66.65211 | 35959 ft | 468 kts | 292° |
| 2026-04-27 09:20 | 39.67972 | 66.57589 | 35957 ft | 468 kts | 292° |
| 2026-04-27 09:21 | 39.70800 | 66.49956 | 35954 ft | 469 kts | 292° |
| 2026-04-27 09:21 | 39.73477 | 66.42312 | 35954 ft | 466 kts | 286° |
| 2026-04-27 09:22 | 39.74751 | 66.34103 | 35949 ft | 463 kts | 271° |
| 2026-04-27 09:22 | 39.74829 | 66.25740 | 35944 ft | 461 kts | 268° |
| 2026-04-27 09:23 | 39.74874 | 66.17406 | 35940 ft | 460 kts | 269° |
| 2026-04-27 09:23 | 39.75044 | 66.09085 | 35937 ft | 460 kts | 269° |
| 2026-04-27 09:24 | 39.75299 | 66.00813 | 35934 ft | 461 kts | 270° |
| 2026-04-27 09:24 | 39.75493 | 65.92475 | 35932 ft | 461 kts | 269° |
| 2026-04-27 09:25 | 39.75661 | 65.84131 | 35931 ft | 461 kts | 269° |
| 2026-04-27 09:25 | 39.75824 | 65.75801 | 35929 ft | 461 kts | 269° |
| 2026-04-27 09:26 | 39.75987 | 65.67478 | 35922 ft | 461 kts | 269° |
| 2026-04-27 09:26 | 39.76128 | 65.59204 | 35924 ft | 461 kts | 269° |
| 2026-04-27 09:27 | 39.76252 | 65.50882 | 35925 ft | 460 kts | 269° |
| 2026-04-27 09:27 | 39.76370 | 65.42553 | 35927 ft | 460 kts | 269° |
| 2026-04-27 09:28 | 39.76482 | 65.34221 | 35928 ft | 460 kts | 269° |
| 2026-04-27 09:28 | 39.76588 | 65.25954 | 35929 ft | 460 kts | 269° |
| 2026-04-27 09:29 | 39.76721 | 65.17640 | 35930 ft | 460 kts | 269° |
| 2026-04-27 09:29 | 39.76865 | 65.09318 | 35923 ft | 460 kts | 269° |
| 2026-04-27 09:30 | 39.76977 | 65.01007 | 35921 ft | 460 kts | 269° |
| 2026-04-27 09:30 | 39.77076 | 64.92680 | 35918 ft | 459 kts | 268° |
| 2026-04-27 09:31 | 39.77181 | 64.85774 | 35915 ft | 460 kts | 269° |
| 2026-04-27 09:31 | 39.77280 | 64.77464 | 35912 ft | 460 kts | 268° |
| 2026-04-27 09:32 | 39.77348 | 64.69144 | 35909 ft | 460 kts | 268° |
| 2026-04-27 09:32 | 39.77409 | 64.60876 | 35907 ft | 460 kts | 268° |
| 2026-04-27 09:33 | 39.77469 | 64.52544 | 35906 ft | 461 kts | 268° |
| 2026-04-27 09:33 | 39.77574 | 64.44210 | 35905 ft | 461 kts | 270° |
| 2026-04-27 09:34 | 39.77971 | 64.35886 | 35905 ft | 462 kts | 271° |
| 2026-04-27 09:34 | 39.78390 | 64.27554 | 35907 ft | 462 kts | 271° |
| 2026-04-27 09:35 | 39.78760 | 64.19207 | 35909 ft | 463 kts | 271° |
| 2026-04-27 09:35 | 39.79110 | 64.10904 | 35911 ft | 463 kts | 270° |
| 2026-04-27 09:36 | 39.79459 | 64.02531 | 35913 ft | 463 kts | 271° |
| 2026-04-27 09:36 | 39.79857 | 63.94182 | 35915 ft | 463 kts | 271° |
| 2026-04-27 09:37 | 39.80218 | 63.85819 | 35917 ft | 463 kts | 270° |
| 2026-04-27 09:37 | 39.80560 | 63.77470 | 35920 ft | 463 kts | 270° |
| 2026-04-27 09:38 | 39.80894 | 63.69115 | 35922 ft | 463 kts | 270° |
| 2026-04-27 09:38 | 39.81258 | 63.60803 | 35923 ft | 462 kts | 270° |
| 2026-04-27 09:39 | 39.81576 | 63.52440 | 35932 ft | 462 kts | 270° |
| 2026-04-27 09:39 | 39.81877 | 63.44077 | 35933 ft | 462 kts | 270° |
| 2026-04-27 09:40 | 39.82173 | 63.35722 | 35934 ft | 462 kts | 270° |
| 2026-04-27 09:40 | 39.82470 | 63.27366 | 35934 ft | 462 kts | 270° |
| 2026-04-27 09:41 | 39.82767 | 63.19052 | 35935 ft | 463 kts | 270° |
| 2026-04-27 09:41 | 39.83102 | 63.10691 | 35935 ft | 463 kts | 271° |
| 2026-04-27 09:42 | 39.83405 | 63.02326 | 35936 ft | 463 kts | 270° |
| 2026-04-27 09:42 | 39.83680 | 62.93957 | 35937 ft | 463 kts | 270° |
| 2026-04-27 09:43 | 39.83950 | 62.85591 | 35938 ft | 463 kts | 270° |
| 2026-04-27 09:43 | 39.84220 | 62.77203 | 35939 ft | 464 kts | 270° |
| 2026-04-27 09:44 | 39.84462 | 62.68806 | 35940 ft | 464 kts | 270° |
| 2026-04-27 09:44 | 39.84662 | 62.60463 | 35941 ft | 464 kts | 270° |
| 2026-04-27 09:45 | 39.84858 | 62.52049 | 35942 ft | 465 kts | 270° |
| 2026-04-27 09:45 | 39.85050 | 62.43629 | 35943 ft | 465 kts | 270° |
| 2026-04-27 09:46 | 39.85236 | 62.35203 | 35944 ft | 466 kts | 270° |
| 2026-04-27 09:46 | 39.85437 | 62.26777 | 35946 ft | 466 kts | 270° |
| 2026-04-27 09:47 | 39.85669 | 62.18349 | 35947 ft | 466 kts | 270° |
| 2026-04-27 09:47 | 39.85866 | 62.09911 | 35948 ft | 466 kts | 270° |
| 2026-04-27 09:48 | 39.86047 | 62.01519 | 35950 ft | 467 kts | 270° |
| 2026-04-27 09:48 | 39.86220 | 61.93063 | 35951 ft | 467 kts | 270° |
| 2026-04-27 09:49 | 39.86387 | 61.84617 | 35949 ft | 466 kts | 270° |
| 2026-04-27 09:49 | 39.86569 | 61.76179 | 35950 ft | 466 kts | 270° |
| 2026-04-27 09:50 | 39.86742 | 61.67741 | 35951 ft | 466 kts | 269° |
| 2026-04-27 09:50 | 39.86877 | 61.59299 | 35953 ft | 466 kts | 269° |
| 2026-04-27 09:51 | 39.87005 | 61.50864 | 35954 ft | 466 kts | 269° |
| 2026-04-27 09:51 | 39.87130 | 61.42481 | 35957 ft | 465 kts | 269° |
| 2026-04-27 09:52 | 39.87272 | 61.34006 | 35959 ft | 465 kts | 270° |
| 2026-04-27 09:52 | 39.87484 | 61.25634 | 35959 ft | 465 kts | 270° |
| 2026-04-27 09:53 | 39.87681 | 61.17221 | 35960 ft | 465 kts | 270° |
| 2026-04-27 09:53 | 39.87867 | 61.08801 | 35960 ft | 465 kts | 270° |
| 2026-04-27 09:54 | 39.88046 | 61.00384 | 35961 ft | 465 kts | 270° |
| 2026-04-27 09:54 | 39.88224 | 60.91982 | 35961 ft | 464 kts | 270° |
| 2026-04-27 09:55 | 39.88451 | 60.83572 | 35961 ft | 464 kts | 270° |
| 2026-04-27 09:55 | 39.88726 | 60.70951 | 35961 ft | 465 kts | 270° |
| 2026-04-27 09:56 | 39.88932 | 60.62531 | 35963 ft | 464 kts | 270° |
| 2026-04-27 09:56 | 39.89086 | 60.54180 | 35983 ft | 464 kts | 270° |
| 2026-04-27 09:57 | 39.89225 | 60.45776 | 35983 ft | 464 kts | 270° |
| 2026-04-27 09:57 | 39.89359 | 60.37371 | 35983 ft | 464 kts | 270° |
| 2026-04-27 09:58 | 39.89495 | 60.28962 | 35983 ft | 464 kts | 270° |
| 2026-04-27 09:58 | 39.89589 | 60.20528 | 35982 ft | 464 kts | 269° |
| 2026-04-27 09:59 | 39.89660 | 60.12126 | 35982 ft | 464 kts | 269° |
| 2026-04-27 09:59 | 39.89727 | 60.03764 | 35981 ft | 464 kts | 269° |
| 2026-04-27 10:00 | 39.89790 | 59.95343 | 35980 ft | 464 kts | 269° |
| 2026-04-27 10:00 | 39.89849 | 59.86944 | 35980 ft | 464 kts | 269° |
| 2026-04-27 10:01 | 39.89941 | 59.78523 | 35972 ft | 464 kts | 270° |
| 2026-04-27 10:01 | 39.90066 | 59.70109 | 35969 ft | 464 kts | 269° |
| 2026-04-27 10:02 | 39.90113 | 59.61737 | 35969 ft | 464 kts | 269° |
| 2026-04-27 10:02 | 39.90144 | 59.53333 | 35952 ft | 464 kts | 269° |
| 2026-04-27 10:03 | 39.90172 | 59.44939 | 35950 ft | 463 kts | 269° |
| 2026-04-27 10:03 | 39.90200 | 59.36552 | 35949 ft | 463 kts | 269° |
| 2026-04-27 10:04 | 39.90226 | 59.28149 | 35949 ft | 463 kts | 269° |
| 2026-04-27 10:04 | 39.90217 | 59.19760 | 35947 ft | 463 kts | 269° |
| 2026-04-27 10:05 | 39.90205 | 59.11420 | 35947 ft | 463 kts | 269° |
| 2026-04-27 10:05 | 39.90177 | 59.03034 | 35946 ft | 462 kts | 268° |
| 2026-04-27 10:06 | 39.90126 | 58.94666 | 35951 ft | 461 kts | 268° |
| 2026-04-27 10:06 | 39.90068 | 58.86303 | 35950 ft | 461 kts | 268° |
| 2026-04-27 10:07 | 39.90005 | 58.77958 | 35949 ft | 461 kts | 268° |
| 2026-04-27 10:07 | 39.89938 | 58.69592 | 35948 ft | 461 kts | 268° |
| 2026-04-27 10:08 | 39.89882 | 58.61235 | 35947 ft | 461 kts | 269° |
| 2026-04-27 10:08 | 39.89888 | 58.52942 | 35946 ft | 460 kts | 268° |
| 2026-04-27 10:09 | 39.89829 | 58.44596 | 35945 ft | 460 kts | 268° |
| 2026-04-27 10:09 | 39.89735 | 58.36266 | 35944 ft | 459 kts | 268° |
| 2026-04-27 10:10 | 39.89638 | 58.27978 | 35942 ft | 459 kts | 268° |
| 2026-04-27 10:10 | 39.89539 | 58.19662 | 35942 ft | 459 kts | 268° |
| 2026-04-27 10:11 | 39.89453 | 58.11345 | 35941 ft | 459 kts | 268° |
| 2026-04-27 10:11 | 39.89377 | 58.03019 | 35940 ft | 459 kts | 268° |
| 2026-04-27 10:12 | 39.89288 | 57.94693 | 35939 ft | 459 kts | 268° |
| 2026-04-27 10:12 | 39.89192 | 57.86369 | 35939 ft | 459 kts | 268° |
| 2026-04-27 10:13 | 39.89090 | 57.78104 | 35938 ft | 459 kts | 268° |
| 2026-04-27 10:13 | 39.88990 | 57.69783 | 35938 ft | 459 kts | 268° |
| 2026-04-27 10:14 | 39.88942 | 57.61453 | 35937 ft | 459 kts | 268° |
| 2026-04-27 10:14 | 39.88875 | 57.54530 | 35938 ft | 460 kts | 268° |
| 2026-04-27 10:15 | 39.88757 | 57.44837 | 35937 ft | 459 kts | 268° |
| 2026-04-27 10:15 | 39.88645 | 57.36519 | 35936 ft | 459 kts | 268° |
| 2026-04-27 10:16 | 39.88545 | 57.29547 | 35936 ft | 460 kts | 268° |
| 2026-04-27 10:16 | 39.88420 | 57.21215 | 35904 ft | 460 kts | 268° |
| 2026-04-27 10:17 | 39.88290 | 57.12946 | 35901 ft | 460 kts | 267° |
| 2026-04-27 10:17 | 39.88153 | 57.04621 | 35900 ft | 460 kts | 267° |
| 2026-04-27 10:18 | 39.88010 | 56.96292 | 35899 ft | 460 kts | 267° |
| 2026-04-27 10:18 | 39.87861 | 56.87969 | 35897 ft | 460 kts | 267° |
| 2026-04-27 10:19 | 39.87707 | 56.79642 | 35895 ft | 460 kts | 267° |
| 2026-04-27 10:19 | 39.87546 | 56.71332 | 35915 ft | 459 kts | 267° |
| 2026-04-27 10:20 | 39.87391 | 56.63014 | 35914 ft | 459 kts | 268° |
| 2026-04-27 10:20 | 39.87250 | 56.54754 | 35912 ft | 459 kts | 267° |
| 2026-04-27 10:21 | 39.87061 | 56.46435 | 35909 ft | 459 kts | 267° |
| 2026-04-27 10:21 | 39.86863 | 56.38123 | 35906 ft | 459 kts | 266° |
| 2026-04-27 10:22 | 39.86662 | 56.29811 | 35903 ft | 459 kts | 266° |
| 2026-04-27 10:22 | 39.86461 | 56.21482 | 35900 ft | 459 kts | 266° |
| 2026-04-27 10:23 | 39.86260 | 56.13225 | 35898 ft | 459 kts | 266° |
| 2026-04-27 10:23 | 39.86047 | 56.04914 | 35893 ft | 459 kts | 266° |
| 2026-04-27 10:24 | 39.85825 | 55.96584 | 35885 ft | 459 kts | 266° |
| 2026-04-27 10:24 | 39.85599 | 55.88277 | 35883 ft | 459 kts | 266° |
| 2026-04-27 10:25 | 39.85368 | 55.79972 | 35881 ft | 459 kts | 266° |
| 2026-04-27 10:25 | 39.85181 | 55.71719 | 35879 ft | 459 kts | 267° |
| 2026-04-27 10:26 | 39.84976 | 55.63396 | 35876 ft | 459 kts | 266° |
| 2026-04-27 10:26 | 39.84748 | 55.55099 | 35874 ft | 458 kts | 266° |
| 2026-04-27 10:27 | 39.84509 | 55.46802 | 35872 ft | 458 kts | 266° |
| 2026-04-27 10:27 | 39.84303 | 55.38549 | 35871 ft | 459 kts | 266° |
| 2026-04-27 10:28 | 39.84047 | 55.30244 | 35869 ft | 458 kts | 266° |
| 2026-04-27 10:28 | 39.83775 | 55.21965 | 35867 ft | 457 kts | 266° |
| 2026-04-27 10:29 | 39.83499 | 55.13697 | 35866 ft | 458 kts | 266° |
| 2026-04-27 10:29 | 39.83226 | 55.05471 | 35863 ft | 457 kts | 266° |
| 2026-04-27 10:30 | 39.82985 | 54.97208 | 35862 ft | 457 kts | 266° |
| 2026-04-27 10:30 | 39.82722 | 54.88934 | 35860 ft | 457 kts | 266° |
| 2026-04-27 10:31 | 39.82456 | 54.80683 | 35856 ft | 456 kts | 267° |
| 2026-04-27 10:31 | 39.83087 | 54.72457 | 35856 ft | 459 kts | 279° |
| 2026-04-27 10:32 | 39.84787 | 54.64429 | 35854 ft | 461 kts | 284° |
| 2026-04-27 10:32 | 39.86567 | 54.56396 | 35853 ft | 462 kts | 282° |
| 2026-04-27 10:33 | 39.88276 | 54.48320 | 35852 ft | 462 kts | 282° |
| 2026-04-27 10:33 | 39.89707 | 54.40189 | 35851 ft | 459 kts | 277° |
| 2026-04-27 10:34 | 39.90581 | 54.32002 | 35850 ft | 458 kts | 274° |
| 2026-04-27 10:34 | 39.91348 | 54.23760 | 35850 ft | 458 kts | 275° |
| 2026-04-27 10:35 | 39.92183 | 54.15530 | 35850 ft | 458 kts | 275° |
| 2026-04-27 10:35 | 39.93043 | 54.07285 | 35852 ft | 458 kts | 275° |
| 2026-04-27 10:36 | 39.93905 | 53.99112 | 35854 ft | 458 kts | 275° |
| 2026-04-27 10:36 | 39.94825 | 53.90891 | 35858 ft | 458 kts | 275° |
| 2026-04-27 10:37 | 39.95709 | 53.82668 | 35863 ft | 458 kts | 275° |
| 2026-04-27 10:37 | 39.96577 | 53.74433 | 35868 ft | 458 kts | 275° |
| 2026-04-27 10:38 | 39.97435 | 53.66201 | 35875 ft | 458 kts | 275° |
| 2026-04-27 10:38 | 39.98285 | 53.57978 | 35881 ft | 458 kts | 275° |
| 2026-04-27 10:39 | 39.99131 | 53.49740 | 35888 ft | 458 kts | 275° |
| 2026-04-27 10:39 | 39.99976 | 53.41503 | 35894 ft | 458 kts | 275° |
| 2026-04-27 10:40 | 40.00844 | 53.33265 | 35898 ft | 458 kts | 275° |
| 2026-04-27 10:40 | 40.01664 | 53.25014 | 35902 ft | 459 kts | 275° |
| 2026-04-27 10:41 | 40.02473 | 53.16754 | 35904 ft | 459 kts | 275° |
| 2026-04-27 10:41 | 40.03279 | 53.08494 | 35905 ft | 458 kts | 275° |
| 2026-04-27 10:42 | 40.04088 | 53.00294 | 35905 ft | 459 kts | 275° |
| 2026-04-27 10:42 | 40.05263 | 52.92077 | 35905 ft | 460 kts | 279° |
| 2026-04-27 10:43 | 40.06644 | 52.83919 | 35905 ft | 460 kts | 279° |
| 2026-04-27 10:43 | 40.07965 | 52.75740 | 35905 ft | 460 kts | 279° |
| 2026-04-27 10:44 | 40.09249 | 52.67538 | 35905 ft | 460 kts | 278° |
| 2026-04-27 10:44 | 40.10508 | 52.59396 | 35905 ft | 460 kts | 278° |
| 2026-04-27 10:45 | 40.11812 | 52.51211 | 35905 ft | 460 kts | 279° |
| 2026-04-27 10:45 | 40.13109 | 52.43031 | 35906 ft | 459 kts | 278° |
| 2026-04-27 10:46 | 40.14379 | 52.34843 | 35905 ft | 460 kts | 278° |
| 2026-04-27 10:46 | 40.15638 | 52.26642 | 35905 ft | 459 kts | 278° |
| 2026-04-27 10:47 | 40.16888 | 52.18453 | 35905 ft | 459 kts | 278° |
| 2026-04-27 10:47 | 40.18131 | 52.10264 | 35905 ft | 459 kts | 278° |
| 2026-04-27 10:48 | 40.19369 | 52.02065 | 35908 ft | 459 kts | 278° |
| 2026-04-27 10:48 | 40.20594 | 51.93908 | 35908 ft | 459 kts | 278° |
| 2026-04-27 10:49 | 40.21853 | 51.85714 | 35909 ft | 459 kts | 278° |
| 2026-04-27 10:49 | 40.23078 | 51.77512 | 35908 ft | 459 kts | 278° |
| 2026-04-27 10:50 | 40.24279 | 51.69295 | 35908 ft | 459 kts | 278° |
| 2026-04-27 10:50 | 40.25474 | 51.61083 | 35908 ft | 459 kts | 278° |
| 2026-04-27 10:51 | 40.26670 | 51.52864 | 35909 ft | 459 kts | 278° |
| 2026-04-27 10:51 | 40.27856 | 51.44698 | 35909 ft | 459 kts | 278° |
| 2026-04-27 10:52 | 40.29041 | 51.36462 | 35909 ft | 459 kts | 278° |
| 2026-04-27 10:52 | 40.30212 | 51.28247 | 35909 ft | 459 kts | 277° |
| 2026-04-27 10:53 | 40.31958 | 51.15908 | 35908 ft | 459 kts | 277° |
| 2026-04-27 10:54 | 40.33106 | 51.07744 | 35908 ft | 458 kts | 277° |
| 2026-04-27 10:54 | 40.34302 | 50.99532 | 35907 ft | 458 kts | 278° |
| 2026-04-27 10:55 | 40.35493 | 50.91308 | 35907 ft | 458 kts | 278° |
| 2026-04-27 10:55 | 40.36654 | 50.83095 | 35907 ft | 458 kts | 277° |
| 2026-04-27 10:56 | 40.37803 | 50.74886 | 35907 ft | 457 kts | 277° |
| 2026-04-27 10:56 | 40.38943 | 50.66681 | 35907 ft | 457 kts | 277° |
| 2026-04-27 10:57 | 40.40078 | 50.58467 | 35907 ft | 457 kts | 277° |
| 2026-04-27 10:57 | 40.41207 | 50.50244 | 35906 ft | 457 kts | 277° |
| 2026-04-27 10:58 | 40.42352 | 50.42081 | 35906 ft | 457 kts | 277° |
| 2026-04-27 10:58 | 40.43459 | 50.34017 | 35906 ft | 457 kts | 277° |
| 2026-04-27 10:59 | 40.44373 | 50.27177 | 35905 ft | 457 kts | 277° |
| 2026-04-27 10:59 | 40.45467 | 50.18940 | 35905 ft | 458 kts | 277° |
| 2026-04-27 11:00 | 40.47186 | 50.06598 | 35908 ft | 458 kts | 282° |
| 2026-04-27 11:00 | 40.49327 | 49.98687 | 35906 ft | 461 kts | 289° |
| 2026-04-27 11:01 | 40.51974 | 49.91002 | 35906 ft | 462 kts | 291° |
| 2026-04-27 11:01 | 40.54589 | 49.83287 | 35905 ft | 462 kts | 290° |
| 2026-04-27 11:02 | 40.57135 | 49.75530 | 35905 ft | 462 kts | 290° |
| 2026-04-27 11:02 | 40.59679 | 49.67765 | 35905 ft | 462 kts | 289° |
| 2026-04-27 11:03 | 40.62204 | 49.60053 | 35902 ft | 462 kts | 290° |
| 2026-04-27 11:03 | 40.64706 | 49.52250 | 35898 ft | 461 kts | 288° |
| 2026-04-27 11:04 | 40.67030 | 49.44378 | 35895 ft | 461 kts | 287° |
| 2026-04-27 11:04 | 40.69354 | 49.36510 | 35893 ft | 460 kts | 288° |
| 2026-04-27 11:05 | 40.71683 | 49.28649 | 35890 ft | 460 kts | 288° |
| 2026-04-27 11:05 | 40.73953 | 49.20824 | 35888 ft | 459 kts | 285° |
| 2026-04-27 11:06 | 40.75932 | 49.12810 | 35885 ft | 458 kts | 283° |
| 2026-04-27 11:06 | 40.77830 | 49.04786 | 35883 ft | 458 kts | 284° |
| 2026-04-27 11:07 | 40.79767 | 48.96766 | 35880 ft | 458 kts | 284° |
| 2026-04-27 11:07 | 40.81716 | 48.88747 | 35878 ft | 458 kts | 284° |
| 2026-04-27 11:08 | 40.83652 | 48.80780 | 35879 ft | 458 kts | 284° |
| 2026-04-27 11:08 | 40.85654 | 48.72775 | 35895 ft | 458 kts | 284° |
| 2026-04-27 11:09 | 40.87626 | 48.64764 | 35894 ft | 458 kts | 284° |
| 2026-04-27 11:09 | 40.89576 | 48.56747 | 35892 ft | 458 kts | 284° |
| 2026-04-27 11:10 | 40.91516 | 48.48732 | 35891 ft | 457 kts | 284° |
| 2026-04-27 11:10 | 40.93447 | 48.40722 | 35889 ft | 457 kts | 284° |
| 2026-04-27 11:11 | 40.95374 | 48.32700 | 35888 ft | 457 kts | 284° |
| 2026-04-27 11:11 | 40.97311 | 48.24737 | 35887 ft | 458 kts | 284° |
| 2026-04-27 11:12 | 40.99234 | 48.16716 | 35885 ft | 457 kts | 284° |
| 2026-04-27 11:12 | 41.01129 | 48.08684 | 35884 ft | 457 kts | 284° |
| 2026-04-27 11:13 | 41.03017 | 48.00652 | 35883 ft | 457 kts | 283° |
| 2026-04-27 11:13 | 41.04907 | 47.92607 | 35882 ft | 457 kts | 283° |
| 2026-04-27 11:14 | 41.06762 | 47.84542 | 35882 ft | 457 kts | 282° |
| 2026-04-27 11:14 | 41.08472 | 47.76433 | 35880 ft | 457 kts | 282° |
| 2026-04-27 11:15 | 41.10178 | 47.68312 | 35876 ft | 456 kts | 282° |
| 2026-04-27 11:15 | 41.11884 | 47.60213 | 35874 ft | 456 kts | 282° |
| 2026-04-27 11:16 | 41.13595 | 47.52078 | 35876 ft | 457 kts | 282° |
| 2026-04-27 11:16 | 41.15295 | 47.43997 | 35876 ft | 457 kts | 282° |
| 2026-04-27 11:17 | 41.17054 | 47.35881 | 35879 ft | 457 kts | 282° |
| 2026-04-27 11:17 | 41.18778 | 47.27748 | 35883 ft | 457 kts | 282° |
| 2026-04-27 11:18 | 41.20485 | 47.19602 | 35889 ft | 457 kts | 282° |
| 2026-04-27 11:18 | 41.22204 | 47.11509 | 35898 ft | 458 kts | 282° |
| 2026-04-27 11:19 | 41.23907 | 47.03352 | 35907 ft | 458 kts | 282° |
| 2026-04-27 11:19 | 41.25583 | 46.95179 | 35916 ft | 458 kts | 282° |
| 2026-04-27 11:20 | 41.27253 | 46.86996 | 35924 ft | 458 kts | 282° |
| 2026-04-27 11:20 | 41.28924 | 46.78811 | 35932 ft | 458 kts | 282° |